sensor_id;sensor_type;location;lat;lon;timestamp;temperature;humidity
54680;DHT22;40578;53.178;5.846;2023-03-13T00:02:11;7.80;99.90
54680;DHT22;40578;53.178;5.846;2023-03-13T00:04:36;7.80;99.90
54680;DHT22;40578;53.178;5.846;2023-03-13T00:07:02;8.30;99.90
54680;DHT22;40578;53.178;5.846;2023-03-13T00:09:28;7.90;99.90
54680;DHT22;40578;53.178;5.846;2023-03-13T00:11:53;7.80;99.90
54680;DHT22;40578;53.178;5.846;2023-03-13T00:14:19;7.80;99.90
54680;DHT22;40578;53.178;5.846;2023-03-13T00:16:45;7.70;99.90
54680;DHT22;40578;53.178;5.846;2023-03-13T00:19:11;7.70;99.90
54680;DHT22;40578;53.178;5.846;2023-03-13T00:21:37;8.10;99.90
54680;DHT22;40578;53.178;5.846;2023-03-13T00:24:02;7.80;99.90
54680;DHT22;40578;53.178;5.846;2023-03-13T00:26:29;7.90;99.90
54680;DHT22;40578;53.178;5.846;2023-03-13T00:28:55;8.80;99.90
54680;DHT22;40578;53.178;5.846;2023-03-13T00:31:26;7.90;99.90
54680;DHT22;40578;53.178;5.846;2023-03-13T00:33:54;8.00;99.90
54680;DHT22;40578;53.178;5.846;2023-03-13T00:36:26;8.00;99.90
54680;DHT22;40578;53.178;5.846;2023-03-13T00:38:53;8.00;99.90
54680;DHT22;40578;53.178;5.846;2023-03-13T00:41:21;8.10;99.90
54680;DHT22;40578;53.178;5.846;2023-03-13T00:43:47;8.10;99.90
54680;DHT22;40578;53.178;5.846;2023-03-13T00:46:15;8.10;99.90
54680;DHT22;40578;53.178;5.846;2023-03-13T00:48:41;8.10;99.90
54680;DHT22;40578;53.178;5.846;2023-03-13T00:51:07;8.10;99.90
54680;DHT22;40578;53.178;5.846;2023-03-13T00:53:33;8.10;99.90
54680;DHT22;40578;53.178;5.846;2023-03-13T00:56:03;8.10;99.90
54680;DHT22;40578;53.178;5.846;2023-03-13T00:58:30;8.20;99.90
54680;DHT22;40578;53.178;5.846;2023-03-13T01:01:08;8.70;99.90
54680;DHT22;40578;53.178;5.846;2023-03-13T01:03:35;8.10;99.90
54680;DHT22;40578;53.178;5.846;2023-03-13T01:06:04;8.10;99.90
54680;DHT22;40578;53.178;5.846;2023-03-13T01:08:29;8.10;99.90
54680;DHT22;40578;53.178;5.846;2023-03-13T01:11:07;8.00;99.90
54680;DHT22;40578;53.178;5.846;2023-03-13T01:13:34;8.10;99.90
54680;DHT22;40578;53.178;5.846;2023-03-13T01:16:06;8.10;99.90
54680;DHT22;40578;53.178;5.846;2023-03-13T01:18:37;8.10;99.90
54680;DHT22;40578;53.178;5.846;2023-03-13T01:21:04;8.00;99.90
54680;DHT22;40578;53.178;5.846;2023-03-13T01:23:30;8.20;99.90
54680;DHT22;40578;53.178;5.846;2023-03-13T01:25:56;8.20;99.90
54680;DHT22;40578;53.178;5.846;2023-03-13T01:28:23;9.20;99.90
54680;DHT22;40578;53.178;5.846;2023-03-13T01:30:49;8.30;99.90
54680;DHT22;40578;53.178;5.846;2023-03-13T01:33:15;8.20;99.90
54680;DHT22;40578;53.178;5.846;2023-03-13T01:35:41;8.30;99.90
54680;DHT22;40578;53.178;5.846;2023-03-13T01:38:06;8.60;99.90
54680;DHT22;40578;53.178;5.846;2023-03-13T01:40:47;8.30;99.90
54680;DHT22;40578;53.178;5.846;2023-03-13T01:43:19;8.40;99.90
54680;DHT22;40578;53.178;5.846;2023-03-13T01:48:34;8.50;99.90
54680;DHT22;40578;53.178;5.846;2023-03-13T01:51:05;8.20;99.90
54680;DHT22;40578;53.178;5.846;2023-03-13T01:53:34;8.80;99.90
54680;DHT22;40578;53.178;5.846;2023-03-13T01:56:01;8.20;99.90
54680;DHT22;40578;53.178;5.846;2023-03-13T01:58:29;8.20;99.90
54680;DHT22;40578;53.178;5.846;2023-03-13T02:00:55;8.00;99.90
54680;DHT22;40578;53.178;5.846;2023-03-13T02:03:26;8.10;99.90
54680;DHT22;40578;53.178;5.846;2023-03-13T02:05:52;8.10;99.90
54680;DHT22;40578;53.178;5.846;2023-03-13T02:08:24;8.30;99.90
54680;DHT22;40578;53.178;5.846;2023-03-13T02:10:55;8.30;99.90
54680;DHT22;40578;53.178;5.846;2023-03-13T02:13:24;8.20;99.90
54680;DHT22;40578;53.178;5.846;2023-03-13T02:15:50;8.30;99.90
54680;DHT22;40578;53.178;5.846;2023-03-13T02:18:16;8.30;99.90
54680;DHT22;40578;53.178;5.846;2023-03-13T02:20:41;9.10;99.90
54680;DHT22;40578;53.178;5.846;2023-03-13T02:23:10;8.00;99.90
54680;DHT22;40578;53.178;5.846;2023-03-13T02:25:48;8.10;99.90
54680;DHT22;40578;53.178;5.846;2023-03-13T02:28:18;8.50;99.90
54680;DHT22;40578;53.178;5.846;2023-03-13T02:30:46;8.10;99.90
54680;DHT22;40578;53.178;5.846;2023-03-13T02:33:15;8.40;99.90
54680;DHT22;40578;53.178;5.846;2023-03-13T02:35:42;8.50;99.90
54680;DHT22;40578;53.178;5.846;2023-03-13T02:38:12;8.40;99.90
54680;DHT22;40578;53.178;5.846;2023-03-13T02:40:41;8.40;99.90
54680;DHT22;40578;53.178;5.846;2023-03-13T02:43:13;8.20;99.90
54680;DHT22;40578;53.178;5.846;2023-03-13T02:45:40;9.40;99.90
54680;DHT22;40578;53.178;5.846;2023-03-13T02:48:05;8.20;99.90
54680;DHT22;40578;53.178;5.846;2023-03-13T02:50:31;8.30;99.90
54680;DHT22;40578;53.178;5.846;2023-03-13T02:53:00;8.40;99.90
54680;DHT22;40578;53.178;5.846;2023-03-13T02:55:31;8.30;99.90
54680;DHT22;40578;53.178;5.846;2023-03-13T02:57:59;8.50;99.90
54680;DHT22;40578;53.178;5.846;2023-03-13T03:00:24;8.50;99.90
54680;DHT22;40578;53.178;5.846;2023-03-13T03:02:52;8.40;99.90
54680;DHT22;40578;53.178;5.846;2023-03-13T03:05:18;8.60;99.90
54680;DHT22;40578;53.178;5.846;2023-03-13T03:07:44;8.70;99.90
54680;DHT22;40578;53.178;5.846;2023-03-13T03:10:10;8.60;99.90
54680;DHT22;40578;53.178;5.846;2023-03-13T03:12:36;8.80;99.90
54680;DHT22;40578;53.178;5.846;2023-03-13T03:15:02;8.90;99.90
54680;DHT22;40578;53.178;5.846;2023-03-13T03:17:29;8.50;99.90
54680;DHT22;40578;53.178;5.846;2023-03-13T03:19:55;8.50;99.90
54680;DHT22;40578;53.178;5.846;2023-03-13T03:22:20;8.60;99.90
54680;DHT22;40578;53.178;5.846;2023-03-13T03:24:46;9.40;99.90
54680;DHT22;40578;53.178;5.846;2023-03-13T03:27:11;9.80;99.90
54680;DHT22;40578;53.178;5.846;2023-03-13T03:29:37;8.80;99.90
54680;DHT22;40578;53.178;5.846;2023-03-13T03:32:03;9.80;99.90
54680;DHT22;40578;53.178;5.846;2023-03-13T03:34:29;8.70;99.90
54680;DHT22;40578;53.178;5.846;2023-03-13T03:36:54;8.70;99.90
54680;DHT22;40578;53.178;5.846;2023-03-13T03:39:20;8.70;99.90
54680;DHT22;40578;53.178;5.846;2023-03-13T03:41:45;9.10;99.90
54680;DHT22;40578;53.178;5.846;2023-03-13T03:44:11;8.90;99.90
54680;DHT22;40578;53.178;5.846;2023-03-13T03:46:36;9.00;99.90
54680;DHT22;40578;53.178;5.846;2023-03-13T03:49:02;9.10;99.90
54680;DHT22;40578;53.178;5.846;2023-03-13T03:51:28;8.80;99.90
54680;DHT22;40578;53.178;5.846;2023-03-13T03:53:53;8.80;99.90
54680;DHT22;40578;53.178;5.846;2023-03-13T03:56:19;10.50;99.90
54680;DHT22;40578;53.178;5.846;2023-03-13T03:58:45;9.60;99.90
54680;DHT22;40578;53.178;5.846;2023-03-13T04:01:11;9.00;99.90
54680;DHT22;40578;53.178;5.846;2023-03-13T04:03:36;9.30;99.90
54680;DHT22;40578;53.178;5.846;2023-03-13T04:06:02;10.50;99.90
54680;DHT22;40578;53.178;5.846;2023-03-13T04:08:28;9.60;99.90
54680;DHT22;40578;53.178;5.846;2023-03-13T04:10:53;9.50;99.90
54680;DHT22;40578;53.178;5.846;2023-03-13T04:13:19;9.60;99.90
54680;DHT22;40578;53.178;5.846;2023-03-13T04:15:44;9.60;99.90
54680;DHT22;40578;53.178;5.846;2023-03-13T04:18:10;9.60;99.90
54680;DHT22;40578;53.178;5.846;2023-03-13T04:20:36;9.80;99.90
54680;DHT22;40578;53.178;5.846;2023-03-13T04:23:02;9.80;99.90
54680;DHT22;40578;53.178;5.846;2023-03-13T04:25:27;9.90;99.90
54680;DHT22;40578;53.178;5.846;2023-03-13T04:27:53;9.70;99.90
54680;DHT22;40578;53.178;5.846;2023-03-13T04:30:19;9.90;99.90
54680;DHT22;40578;53.178;5.846;2023-03-13T04:32:44;9.80;99.90
54680;DHT22;40578;53.178;5.846;2023-03-13T04:35:10;10.00;99.90
54680;DHT22;40578;53.178;5.846;2023-03-13T04:37:35;10.20;99.90
54680;DHT22;40578;53.178;5.846;2023-03-13T04:40:01;10.70;99.90
54680;DHT22;40578;53.178;5.846;2023-03-13T04:42:27;10.00;99.90
54680;DHT22;40578;53.178;5.846;2023-03-13T04:44:52;10.20;99.90
54680;DHT22;40578;53.178;5.846;2023-03-13T04:47:18;10.20;99.90
54680;DHT22;40578;53.178;5.846;2023-03-13T04:49:44;10.50;99.90
54680;DHT22;40578;53.178;5.846;2023-03-13T04:52:09;10.20;99.90
54680;DHT22;40578;53.178;5.846;2023-03-13T04:54:35;11.10;99.90
54680;DHT22;40578;53.178;5.846;2023-03-13T04:57:01;10.40;99.90
54680;DHT22;40578;53.178;5.846;2023-03-13T04:59:27;10.20;99.90
54680;DHT22;40578;53.178;5.846;2023-03-13T05:01:52;10.40;99.90
54680;DHT22;40578;53.178;5.846;2023-03-13T05:04:18;10.20;99.90
54680;DHT22;40578;53.178;5.846;2023-03-13T05:06:43;10.30;99.90
54680;DHT22;40578;53.178;5.846;2023-03-13T05:09:09;10.40;99.90
54680;DHT22;40578;53.178;5.846;2023-03-13T05:11:35;10.30;99.90
54680;DHT22;40578;53.178;5.846;2023-03-13T05:14:00;10.40;99.90
54680;DHT22;40578;53.178;5.846;2023-03-13T05:16:26;10.50;99.90
54680;DHT22;40578;53.178;5.846;2023-03-13T05:18:52;10.50;99.90
54680;DHT22;40578;53.178;5.846;2023-03-13T05:21:17;10.70;99.90
54680;DHT22;40578;53.178;5.846;2023-03-13T05:23:43;10.70;99.90
54680;DHT22;40578;53.178;5.846;2023-03-13T05:26:09;10.40;99.90
54680;DHT22;40578;53.178;5.846;2023-03-13T05:28:34;10.50;99.90
54680;DHT22;40578;53.178;5.846;2023-03-13T05:31:00;10.60;99.90
54680;DHT22;40578;53.178;5.846;2023-03-13T05:33:26;10.40;99.90
54680;DHT22;40578;53.178;5.846;2023-03-13T05:35:51;10.40;99.90
54680;DHT22;40578;53.178;5.846;2023-03-13T05:38:17;10.40;99.90
54680;DHT22;40578;53.178;5.846;2023-03-13T05:40:42;10.40;99.90
54680;DHT22;40578;53.178;5.846;2023-03-13T05:43:08;11.60;99.90
54680;DHT22;40578;53.178;5.846;2023-03-13T05:45:37;10.60;99.90
54680;DHT22;40578;53.178;5.846;2023-03-13T05:48:02;11.30;99.90
54680;DHT22;40578;53.178;5.846;2023-03-13T05:50:28;10.60;99.90
54680;DHT22;40578;53.178;5.846;2023-03-13T05:52:54;10.70;99.90
54680;DHT22;40578;53.178;5.846;2023-03-13T05:55:19;11.40;99.90
54680;DHT22;40578;53.178;5.846;2023-03-13T05:57:46;10.50;99.90
54680;DHT22;40578;53.178;5.846;2023-03-13T06:00:13;10.60;99.90
54680;DHT22;40578;53.178;5.846;2023-03-13T06:02:39;10.70;99.90
54680;DHT22;40578;53.178;5.846;2023-03-13T06:05:05;10.70;99.90
54680;DHT22;40578;53.178;5.846;2023-03-13T06:07:31;10.70;99.90
54680;DHT22;40578;53.178;5.846;2023-03-13T06:09:56;11.10;99.90
54680;DHT22;40578;53.178;5.846;2023-03-13T06:12:22;11.40;99.90
54680;DHT22;40578;53.178;5.846;2023-03-13T06:14:48;10.70;99.90
54680;DHT22;40578;53.178;5.846;2023-03-13T06:17:13;10.70;99.90
54680;DHT22;40578;53.178;5.846;2023-03-13T06:19:39;10.70;99.90
54680;DHT22;40578;53.178;5.846;2023-03-13T06:22:04;10.70;99.90
54680;DHT22;40578;53.178;5.846;2023-03-13T06:24:30;10.70;99.90
54680;DHT22;40578;53.178;5.846;2023-03-13T06:26:56;10.80;99.90
54680;DHT22;40578;53.178;5.846;2023-03-13T06:29:21;10.80;99.90
54680;DHT22;40578;53.178;5.846;2023-03-13T06:31:49;10.80;99.90
54680;DHT22;40578;53.178;5.846;2023-03-13T06:34:15;11.10;99.90
54680;DHT22;40578;53.178;5.846;2023-03-13T06:36:41;10.90;99.90
54680;DHT22;40578;53.178;5.846;2023-03-13T06:39:07;11.00;99.90
54680;DHT22;40578;53.178;5.846;2023-03-13T06:41:33;10.90;99.90
54680;DHT22;40578;53.178;5.846;2023-03-13T06:44:00;11.00;99.90
54680;DHT22;40578;53.178;5.846;2023-03-13T06:46:25;11.10;99.90
54680;DHT22;40578;53.178;5.846;2023-03-13T06:48:52;11.00;99.90
54680;DHT22;40578;53.178;5.846;2023-03-13T06:51:19;10.90;99.90
54680;DHT22;40578;53.178;5.846;2023-03-13T06:53:46;11.00;99.90
54680;DHT22;40578;53.178;5.846;2023-03-13T06:56:12;10.90;99.90
54680;DHT22;40578;53.178;5.846;2023-03-13T06:58:38;11.10;99.90
54680;DHT22;40578;53.178;5.846;2023-03-13T07:01:09;11.20;99.90
54680;DHT22;40578;53.178;5.846;2023-03-13T07:03:36;11.20;99.90
54680;DHT22;40578;53.178;5.846;2023-03-13T07:06:02;11.10;99.90
54680;DHT22;40578;53.178;5.846;2023-03-13T07:08:28;11.00;99.90
54680;DHT22;40578;53.178;5.846;2023-03-13T07:10:58;11.60;99.90
54680;DHT22;40578;53.178;5.846;2023-03-13T07:13:24;11.00;99.90
54680;DHT22;40578;53.178;5.846;2023-03-13T07:15:50;12.30;99.90
54680;DHT22;40578;53.178;5.846;2023-03-13T07:18:16;11.00;99.90
54680;DHT22;40578;53.178;5.846;2023-03-13T07:20:42;11.30;99.90
54680;DHT22;40578;53.178;5.846;2023-03-13T07:23:07;11.00;99.90
54680;DHT22;40578;53.178;5.846;2023-03-13T07:25:33;11.00;99.90
54680;DHT22;40578;53.178;5.846;2023-03-13T07:27:59;10.90;99.90
54680;DHT22;40578;53.178;5.846;2023-03-13T07:30:26;10.90;99.90
54680;DHT22;40578;53.178;5.846;2023-03-13T07:32:52;11.00;99.90
54680;DHT22;40578;53.178;5.846;2023-03-13T07:35:17;10.90;99.90
54680;DHT22;40578;53.178;5.846;2023-03-13T07:37:43;11.50;99.90
54680;DHT22;40578;53.178;5.846;2023-03-13T07:40:11;11.00;99.90
54680;DHT22;40578;53.178;5.846;2023-03-13T07:42:40;11.00;99.90
54680;DHT22;40578;53.178;5.846;2023-03-13T07:45:06;11.00;99.90
54680;DHT22;40578;53.178;5.846;2023-03-13T07:47:35;11.00;99.90
54680;DHT22;40578;53.178;5.846;2023-03-13T07:50:01;11.00;99.90
54680;DHT22;40578;53.178;5.846;2023-03-13T07:52:27;11.00;99.90
54680;DHT22;40578;53.178;5.846;2023-03-13T07:54:53;11.00;99.90
54680;DHT22;40578;53.178;5.846;2023-03-13T07:57:19;11.00;99.90
54680;DHT22;40578;53.178;5.846;2023-03-13T07:59:45;11.00;99.90
54680;DHT22;40578;53.178;5.846;2023-03-13T08:02:11;11.00;99.90
54680;DHT22;40578;53.178;5.846;2023-03-13T08:04:38;11.00;99.90
54680;DHT22;40578;53.178;5.846;2023-03-13T08:07:08;11.00;99.90
54680;DHT22;40578;53.178;5.846;2023-03-13T08:09:33;11.00;99.90
54680;DHT22;40578;53.178;5.846;2023-03-13T08:11:59;11.00;99.90
54680;DHT22;40578;53.178;5.846;2023-03-13T08:14:24;11.00;99.90
54680;DHT22;40578;53.178;5.846;2023-03-13T08:16:50;11.00;99.90
54680;DHT22;40578;53.178;5.846;2023-03-13T08:19:16;11.10;99.90
54680;DHT22;40578;53.178;5.846;2023-03-13T08:21:41;11.20;99.90
54680;DHT22;40578;53.178;5.846;2023-03-13T08:24:07;11.20;99.90
54680;DHT22;40578;53.178;5.846;2023-03-13T08:26:35;11.30;99.90
54680;DHT22;40578;53.178;5.846;2023-03-13T08:29:04;11.30;99.90
54680;DHT22;40578;53.178;5.846;2023-03-13T08:31:32;12.50;99.90
54680;DHT22;40578;53.178;5.846;2023-03-13T08:33:58;11.40;99.90
54680;DHT22;40578;53.178;5.846;2023-03-13T08:36:26;11.50;99.90
54680;DHT22;40578;53.178;5.846;2023-03-13T08:38:54;11.40;99.90
54680;DHT22;40578;53.178;5.846;2023-03-13T08:41:20;11.50;99.90
54680;DHT22;40578;53.178;5.846;2023-03-13T08:43:47;12.30;99.90
54680;DHT22;40578;53.178;5.846;2023-03-13T08:46:13;11.50;99.90
54680;DHT22;40578;53.178;5.846;2023-03-13T08:48:39;11.60;99.90
54680;DHT22;40578;53.178;5.846;2023-03-13T08:51:06;12.40;99.90
54680;DHT22;40578;53.178;5.846;2023-03-13T08:53:33;11.60;99.90
54680;DHT22;40578;53.178;5.846;2023-03-13T08:55:59;11.60;99.90
54680;DHT22;40578;53.178;5.846;2023-03-13T08:58:24;12.10;99.90
54680;DHT22;40578;53.178;5.846;2023-03-13T09:00:50;11.60;99.90
54680;DHT22;40578;53.178;5.846;2023-03-13T09:03:16;11.70;99.90
54680;DHT22;40578;53.178;5.846;2023-03-13T09:05:42;11.60;99.90
54680;DHT22;40578;53.178;5.846;2023-03-13T09:08:11;11.60;99.90
54680;DHT22;40578;53.178;5.846;2023-03-13T09:10:36;12.30;99.90
54680;DHT22;40578;53.178;5.846;2023-03-13T09:13:02;12.60;99.90
54680;DHT22;40578;53.178;5.846;2023-03-13T09:15:28;12.40;99.90
54680;DHT22;40578;53.178;5.846;2023-03-13T09:17:53;11.50;99.90
54680;DHT22;40578;53.178;5.846;2023-03-13T09:20:19;11.50;99.90
54680;DHT22;40578;53.178;5.846;2023-03-13T09:22:45;11.60;99.90
54680;DHT22;40578;53.178;5.846;2023-03-13T09:25:12;12.80;99.90
54680;DHT22;40578;53.178;5.846;2023-03-13T09:27:38;11.70;99.90
54680;DHT22;40578;53.178;5.846;2023-03-13T09:30:04;11.70;99.90
54680;DHT22;40578;53.178;5.846;2023-03-13T09:32:30;11.60;99.90
54680;DHT22;40578;53.178;5.846;2023-03-13T09:34:55;11.70;99.90
54680;DHT22;40578;53.178;5.846;2023-03-13T09:37:21;12.30;99.90
54680;DHT22;40578;53.178;5.846;2023-03-13T09:39:48;11.50;99.90
54680;DHT22;40578;53.178;5.846;2023-03-13T09:42:16;11.50;99.90
54680;DHT22;40578;53.178;5.846;2023-03-13T09:45:01;12.00;99.90
54680;DHT22;40578;53.178;5.846;2023-03-13T09:50:02;12.10;99.90
54680;DHT22;40578;53.178;5.846;2023-03-13T09:52:39;11.90;99.90
54680;DHT22;40578;53.178;5.846;2023-03-13T09:55:20;11.90;99.90
54680;DHT22;40578;53.178;5.846;2023-03-13T09:57:55;12.00;99.90
54680;DHT22;40578;53.178;5.846;2023-03-13T10:00:38;12.10;99.90
54680;DHT22;40578;53.178;5.846;2023-03-13T10:03:05;12.10;99.90
54680;DHT22;40578;53.178;5.846;2023-03-13T10:05:32;12.20;99.90
54680;DHT22;40578;53.178;5.846;2023-03-13T10:08:14;12.20;99.90
54680;DHT22;40578;53.178;5.846;2023-03-13T10:16:11;12.50;99.90
54680;DHT22;40578;53.178;5.846;2023-03-13T10:18:43;12.70;99.90
54680;DHT22;40578;53.178;5.846;2023-03-13T10:21:21;13.00;99.90
54680;DHT22;40578;53.178;5.846;2023-03-13T10:23:58;12.70;99.90
54680;DHT22;40578;53.178;5.846;2023-03-13T10:26:28;12.80;99.90
54680;DHT22;40578;53.178;5.846;2023-03-13T10:28:56;12.90;99.90
54680;DHT22;40578;53.178;5.846;2023-03-13T10:31:29;13.20;99.90
54680;DHT22;40578;53.178;5.846;2023-03-13T10:34:09;12.80;99.90
54680;DHT22;40578;53.178;5.846;2023-03-13T10:36:44;12.80;99.90
54680;DHT22;40578;53.178;5.846;2023-03-13T10:39:21;14.10;99.90
54680;DHT22;40578;53.178;5.846;2023-03-13T10:41:48;12.90;99.90
54680;DHT22;40578;53.178;5.846;2023-03-13T10:44:17;14.00;99.90
54680;DHT22;40578;53.178;5.846;2023-03-13T10:46:45;12.90;99.90
54680;DHT22;40578;53.178;5.846;2023-03-13T10:49:19;13.20;99.90
54680;DHT22;40578;53.178;5.846;2023-03-13T10:51:54;12.80;99.90
54680;DHT22;40578;53.178;5.846;2023-03-13T10:57:34;13.20;99.90
54680;DHT22;40578;53.178;5.846;2023-03-13T11:00:20;13.00;99.90
54680;DHT22;40578;53.178;5.846;2023-03-13T11:02:47;13.20;99.90
54680;DHT22;40578;53.178;5.846;2023-03-13T11:07:53;13.80;99.90
54680;DHT22;40578;53.178;5.846;2023-03-13T11:10:20;13.70;99.90
54680;DHT22;40578;53.178;5.846;2023-03-13T11:12:48;13.70;99.90
54680;DHT22;40578;53.178;5.846;2023-03-13T11:17:46;13.40;99.90
54680;DHT22;40578;53.178;5.846;2023-03-13T11:44:43;13.60;99.90
54680;DHT22;40578;53.178;5.846;2023-03-13T11:53:01;13.50;99.90
54680;DHT22;40578;53.178;5.846;2023-03-13T12:01:11;13.70;99.90
54680;DHT22;40578;53.178;5.846;2023-03-13T12:09:05;14.10;99.90
54680;DHT22;40578;53.178;5.846;2023-03-13T12:14:23;14.10;99.90
54680;DHT22;40578;53.178;5.846;2023-03-13T12:16:56;14.40;99.90
54680;DHT22;40578;53.178;5.846;2023-03-13T12:19:41;13.70;99.90
54680;DHT22;40578;53.178;5.846;2023-03-13T12:22:20;13.60;99.90
54680;DHT22;40578;53.178;5.846;2023-03-13T12:24:54;13.60;99.90
54680;DHT22;40578;53.178;5.846;2023-03-13T12:27:32;13.30;99.90
54680;DHT22;40578;53.178;5.846;2023-03-13T12:30:00;13.20;99.90
54680;DHT22;40578;53.178;5.846;2023-03-13T12:40:43;13.20;99.90
54680;DHT22;40578;53.178;5.846;2023-03-13T12:43:22;13.30;99.90
54680;DHT22;40578;53.178;5.846;2023-03-13T12:48:57;13.50;99.90
54680;DHT22;40578;53.178;5.846;2023-03-13T12:51:47;13.50;99.90
54680;DHT22;40578;53.178;5.846;2023-03-13T12:54:38;13.40;99.90
54680;DHT22;40578;53.178;5.846;2023-03-13T12:59:40;13.40;99.90
54680;DHT22;40578;53.178;5.846;2023-03-13T13:02:28;14.00;99.90
54680;DHT22;40578;53.178;5.846;2023-03-13T13:04:56;13.60;99.90
54680;DHT22;40578;53.178;5.846;2023-03-13T13:07:33;14.10;99.90
54680;DHT22;40578;53.178;5.846;2023-03-13T13:12:38;13.80;99.90
54680;DHT22;40578;53.178;5.846;2023-03-13T13:15:47;13.80;99.90
54680;DHT22;40578;53.178;5.846;2023-03-13T13:23:41;13.80;99.90
54680;DHT22;40578;53.178;5.846;2023-03-13T13:28:56;13.90;99.90
54680;DHT22;40578;53.178;5.846;2023-03-13T13:36:58;13.90;99.90
54680;DHT22;40578;53.178;5.846;2023-03-13T13:39:37;13.90;99.90
54680;DHT22;40578;53.178;5.846;2023-03-13T13:45:00;14.00;99.90
54680;DHT22;40578;53.178;5.846;2023-03-13T13:47:28;13.90;99.90
54680;DHT22;40578;53.178;5.846;2023-03-13T13:49:57;13.90;99.90
54680;DHT22;40578;53.178;5.846;2023-03-13T13:52:36;13.90;99.90
54680;DHT22;40578;53.178;5.846;2023-03-13T13:55:28;14.30;99.90
54680;DHT22;40578;53.178;5.846;2023-03-13T13:57:48;13.90;99.90
54680;DHT22;40578;53.178;5.846;2023-03-13T14:00:21;14.50;99.90
54680;DHT22;40578;53.178;5.846;2023-03-13T14:02:54;13.80;99.90
54680;DHT22;40578;53.178;5.846;2023-03-13T14:08:05;13.70;99.90
54680;DHT22;40578;53.178;5.846;2023-03-13T14:13:25;14.10;99.90
54680;DHT22;40578;53.178;5.846;2023-03-13T14:15:51;13.70;99.90
54680;DHT22;40578;53.178;5.846;2023-03-13T14:18:28;14.10;99.90
54680;DHT22;40578;53.178;5.846;2023-03-13T14:20:59;13.50;99.90
54680;DHT22;40578;53.178;5.846;2023-03-13T14:23:42;13.30;99.90
54680;DHT22;40578;53.178;5.846;2023-03-13T14:28:45;13.40;99.90
54680;DHT22;40578;53.178;5.846;2023-03-13T14:31:27;13.30;99.90
54680;DHT22;40578;53.178;5.846;2023-03-13T14:33:58;13.30;99.90
54680;DHT22;40578;53.178;5.846;2023-03-13T14:36:24;13.60;99.90
54680;DHT22;40578;53.178;5.846;2023-03-13T14:38:52;13.40;99.90
54680;DHT22;40578;53.178;5.846;2023-03-13T14:41:26;13.70;99.90
54680;DHT22;40578;53.178;5.846;2023-03-13T14:43:52;14.20;99.90
54680;DHT22;40578;53.178;5.846;2023-03-13T14:46:29;13.20;99.90
54680;DHT22;40578;53.178;5.846;2023-03-13T14:48:55;13.10;99.90
54680;DHT22;40578;53.178;5.846;2023-03-13T14:51:24;13.10;99.90
54680;DHT22;40578;53.178;5.846;2023-03-13T14:53:59;13.20;99.90
54680;DHT22;40578;53.178;5.846;2023-03-13T14:56:43;13.10;99.90
54680;DHT22;40578;53.178;5.846;2023-03-13T14:59:23;13.00;99.90
54680;DHT22;40578;53.178;5.846;2023-03-13T15:02:14;13.00;99.90
54680;DHT22;40578;53.178;5.846;2023-03-13T15:05:02;13.80;99.90
54680;DHT22;40578;53.178;5.846;2023-03-13T15:07:52;12.90;99.90
54680;DHT22;40578;53.178;5.846;2023-03-13T15:10:22;12.80;99.90
54680;DHT22;40578;53.178;5.846;2023-03-13T15:12:49;12.90;99.90
54680;DHT22;40578;53.178;5.846;2023-03-13T15:15:14;12.90;99.90
54680;DHT22;40578;53.178;5.846;2023-03-13T15:17:40;12.90;99.90
54680;DHT22;40578;53.178;5.846;2023-03-13T15:20:06;12.90;99.90
54680;DHT22;40578;53.178;5.846;2023-03-13T15:22:37;13.00;99.90
54680;DHT22;40578;53.178;5.846;2023-03-13T15:25:13;13.00;99.90
54680;DHT22;40578;53.178;5.846;2023-03-13T15:27:39;13.00;99.90
54680;DHT22;40578;53.178;5.846;2023-03-13T15:30:06;13.20;99.90
54680;DHT22;40578;53.178;5.846;2023-03-13T15:32:33;13.20;99.90
54680;DHT22;40578;53.178;5.846;2023-03-13T15:35:00;13.20;99.90
54680;DHT22;40578;53.178;5.846;2023-03-13T15:37:30;13.20;99.90
54680;DHT22;40578;53.178;5.846;2023-03-13T15:39:56;13.00;99.90
54680;DHT22;40578;53.178;5.846;2023-03-13T15:42:22;13.90;99.90
54680;DHT22;40578;53.178;5.846;2023-03-13T15:44:48;13.00;99.90
54680;DHT22;40578;53.178;5.846;2023-03-13T15:47:18;12.90;99.90
54680;DHT22;40578;53.178;5.846;2023-03-13T15:49:44;12.90;99.90
54680;DHT22;40578;53.178;5.846;2023-03-13T15:52:19;13.30;99.90
54680;DHT22;40578;53.178;5.846;2023-03-13T15:54:47;12.80;99.90
54680;DHT22;40578;53.178;5.846;2023-03-13T15:57:14;13.40;99.90
54680;DHT22;40578;53.178;5.846;2023-03-13T15:59:40;12.70;99.90
54680;DHT22;40578;53.178;5.846;2023-03-13T16:02:14;12.70;99.90
54680;DHT22;40578;53.178;5.846;2023-03-13T16:04:40;12.50;99.90
54680;DHT22;40578;53.178;5.846;2023-03-13T16:07:13;12.60;99.90
54680;DHT22;40578;53.178;5.846;2023-03-13T16:09:40;12.50;99.90
54680;DHT22;40578;53.178;5.846;2023-03-13T16:12:06;12.50;99.90
54680;DHT22;40578;53.178;5.846;2023-03-13T16:14:33;12.70;99.90
54680;DHT22;40578;53.178;5.846;2023-03-13T16:16:59;12.40;99.90
54680;DHT22;40578;53.178;5.846;2023-03-13T16:19:24;12.40;99.90
54680;DHT22;40578;53.178;5.846;2023-03-13T16:21:51;12.80;99.90
54680;DHT22;40578;53.178;5.846;2023-03-13T16:24:17;12.20;99.90
54680;DHT22;40578;53.178;5.846;2023-03-13T16:26:43;12.20;99.90
54680;DHT22;40578;53.178;5.846;2023-03-13T16:29:13;12.00;99.90
54680;DHT22;40578;53.178;5.846;2023-03-13T16:31:40;12.20;99.90
54680;DHT22;40578;53.178;5.846;2023-03-13T16:34:06;11.90;99.90
54680;DHT22;40578;53.178;5.846;2023-03-13T16:36:34;11.90;99.90
54680;DHT22;40578;53.178;5.846;2023-03-13T16:39:04;11.70;99.90
54680;DHT22;40578;53.178;5.846;2023-03-13T16:41:33;11.80;99.90
54680;DHT22;40578;53.178;5.846;2023-03-13T16:43:59;11.60;99.90
54680;DHT22;40578;53.178;5.846;2023-03-13T16:46:37;11.60;99.90
54680;DHT22;40578;53.178;5.846;2023-03-13T16:49:04;11.60;99.90
54680;DHT22;40578;53.178;5.846;2023-03-13T16:51:30;12.90;99.90
54680;DHT22;40578;53.178;5.846;2023-03-13T16:53:57;11.50;99.90
54680;DHT22;40578;53.178;5.846;2023-03-13T16:56:33;12.00;99.90
54680;DHT22;40578;53.178;5.846;2023-03-13T16:59:00;11.50;99.90
54680;DHT22;40578;53.178;5.846;2023-03-13T17:01:27;11.30;99.90
54680;DHT22;40578;53.178;5.846;2023-03-13T17:03:54;11.50;99.90
54680;DHT22;40578;53.178;5.846;2023-03-13T17:06:28;12.20;99.90
54680;DHT22;40578;53.178;5.846;2023-03-13T17:08:56;11.30;99.90
54680;DHT22;40578;53.178;5.846;2023-03-13T17:11:23;11.20;99.90
54680;DHT22;40578;53.178;5.846;2023-03-13T17:13:51;11.30;99.90
54680;DHT22;40578;53.178;5.846;2023-03-13T17:16:19;11.10;99.90
54680;DHT22;40578;53.178;5.846;2023-03-13T17:18:47;11.00;99.90
54680;DHT22;40578;53.178;5.846;2023-03-13T17:21:17;11.60;99.90
54680;DHT22;40578;53.178;5.846;2023-03-13T17:23:43;11.00;99.90
54680;DHT22;40578;53.178;5.846;2023-03-13T17:26:21;11.30;99.90
54680;DHT22;40578;53.178;5.846;2023-03-13T17:28:49;11.00;99.90